Sawyer County Airport Hayward US
ICAO: KHYR
IATA: HYR
Category: Medium
Scheduled Services: No

Elevation: 1216 ft
TransAlt. 18000 ft.

Airport Communications:
MINNEAPOLIS CNTR:126.45
ASOS:113.4
GREEN BAY RDO:113.4
CTAF/UNICOM:122.8

KHYR Zoom In..

If you have problems with the map follow the link
https://www.worldairports.se/pages/airport.php?
ICAO=KHYR

Runways:

(A) RW 02 length 5002 ft width 100 ft
LOC 108.50 / hdg 25

(B) RW 16 length 1090 ft width 110 ft
LOC 108.50 / hdg 163

(C) RW 20 length 5002 ft width 100 ft
LOC 108.50 / hdg 205

(D) RW 34 length 1090 ft width 110 ft
LOC 108.50 / hdg 343

Location; KHYR
Day. 22 / Time. 17.08 Zulu
* Altimeter: 30.39
* Temperature: -09° c. -15.8°f.
* Wind from: 200° Speed 04 kn.
Dewpoint: -11° c.
Visibility: 4 Statute Miles.
Clouds: Scattered 800 ft.
Conditions: Mist.

KHYR 221708Z AUTO 20004KT 4SM BR SCT008 M09/M11 A3039 RMK AO2 T10891106


Wind From 200°
Speed 04 kn.

 
 
jpsmedia.com for Web Design worldairports.se 2019   terms of use